Terminal Aerodrome Forecast
Issued by NWS Wilmington, OH

Current Version | Previous Version | Text Only | Print | Product List | Glossary Off
Versions: 1 2 3 4 5 6 7 8 9 10 11 12 13 14 15 16 17 18 19 20 21 22

000
FTUS41 KILN 290900 AAA
TAFCVG
TAF AMD
KCVG 290926Z 2909/3012 33004KT P6SM SCT050
     FM291600 31008KT P6SM BKN040
     FM300100 28003KT P6SM SCT050=

USA.gov is the U.S. government's official web portal to all federal, state and local government web resources and services.